Time;durP1;ratioP1;P1;durP2;ratioP2;P2;SDS_P1;SDS_P2;PMS_P1;PMS_P2;Temp;Humidity;BMP_temperature;BMP_pressure;BME280_temperature;BME280_humidity;BME280_pressure;Samples;Min_cycle;Max_cycle;Signal;HPM_P1;HPM_P2
2023/04/22 00:00:05;;;;;;;1.03;0.50;;;;;;;12.18;71.46;94906.75;4389500;32;20241;-60
2023/04/22 00:02:31;;;;;;;0.47;0.47;;;;;;;12.26;71.25;94905.97;4392727;32;20195;-60
2023/04/22 00:04:56;;;;;;;0.10;0.10;;;;;;;12.25;71.56;94899.09;4387347;32;20185;-61
2023/04/22 00:07:22;;;;;;;12.57;0.43;;;;;;;12.30;71.07;94904.22;4391066;32;20279;-61
2023/04/22 00:09:48;;;;;;;0.70;0.70;;;;;;;12.12;71.84;94907.97;4392157;32;20185;-60
2023/04/22 00:12:13;;;;;;;0.57;0.57;;;;;;;12.05;72.37;94903.16;4389133;32;20250;-60
2023/04/22 00:14:38;;;;;;;0.10;0.10;;;;;;;12.03;72.46;94898.16;4404933;32;20225;-61
2023/04/22 00:17:05;;;;;;;0.20;0.20;;;;;;;12.17;71.88;94903.31;4397156;32;20242;-60
2023/04/22 00:19:31;;;;;;;0.50;0.50;;;;;;;12.12;72.34;94895.47;4388473;32;20176;-60
2023/04/22 00:21:57;;;;;;;0.47;0.47;;;;;;;12.00;72.57;94895.31;4393578;32;20214;-61
2023/04/22 00:24:22;;;;;;;0.33;0.33;;;;;;;12.16;72.25;94887.66;4395542;32;20192;-60
2023/04/22 00:26:47;;;;;;;0.67;0.67;;;;;;;12.20;71.70;94891.25;4397398;32;20184;-60
2023/04/22 00:29:13;;;;;;;0.73;0.73;;;;;;;12.06;72.11;94888.75;4385811;32;20242;-60
2023/04/22 00:31:38;;;;;;;0.83;0.83;;;;;;;11.92;73.05;94890.78;4393516;32;20219;-60
2023/04/22 00:34:03;;;;;;;0.80;0.80;;;;;;;11.88;73.59;94892.50;4394217;32;20195;-60
2023/04/22 00:36:30;;;;;;;0.20;0.20;;;;;;;12.02;72.51;94903.78;4392183;32;20177;-60
2023/04/22 00:38:55;;;;;;;1.93;0.93;;;;;;;11.87;73.60;94901.56;4385813;32;20225;-60
2023/04/22 00:41:21;;;;;;;0.43;0.43;;;;;;;11.94;73.18;94899.22;4397475;32;20188;-60
2023/04/22 00:43:46;;;;;;;0.17;0.17;;;;;;;11.89;73.47;94894.06;4390201;32;20188;-61
2023/04/22 00:46:13;;;;;;;0.20;0.20;;;;;;;11.66;74.22;94896.81;4384211;32;20222;-60
2023/04/22 00:48:38;;;;;;;0.27;0.27;;;;;;;11.92;73.89;94893.44;4386914;32;20193;-60
2023/04/22 00:51:04;;;;;;;0.20;0.20;;;;;;;11.78;73.72;94888.28;4400054;32;20286;-60
2023/04/22 00:53:29;;;;;;;0.10;0.10;;;;;;;11.75;74.16;94888.84;4399505;32;20188;-60
2023/04/22 00:55:55;;;;;;;0.27;0.27;;;;;;;11.88;73.85;94887.16;4391233;32;20237;-60
2023/04/22 00:58:24;;;;;;;0.10;0.10;;;;;;;11.93;74.40;94895.00;4393965;32;20262;-60
2023/04/22 01:00:50;;;;;;;1.50;0.70;;;;;;;11.75;73.89;94888.84;4391048;32;20195;-60
2023/04/22 01:03:16;;;;;;;0.67;0.67;;;;;;;11.85;73.64;94890.44;4402507;32;20295;-60
2023/04/22 01:05:42;;;;;;;0.60;0.60;;;;;;;11.82;73.44;94888.44;4393202;32;20188;-61
2023/04/22 01:08:07;;;;;;;0.07;0.07;;;;;;;11.65;73.74;94895.25;4412358;32;20218;-61
2023/04/22 01:10:33;;;;;;;0.10;0.10;;;;;;;11.84;73.49;94891.56;4397977;32;20307;-61
2023/04/22 01:12:58;;;;;;;0.20;0.20;;;;;;;11.59;73.97;94893.84;4398554;32;20229;-60
2023/04/22 01:15:23;;;;;;;0.60;0.60;;;;;;;11.65;74.14;94897.13;4395091;32;20176;-60
2023/04/22 01:17:50;;;;;;;0.43;0.43;;;;;;;11.67;74.05;94905.56;4405534;32;20180;-60
2023/04/22 01:20:16;;;;;;;0.23;0.23;;;;;;;11.46;74.85;94891.28;4396611;32;20219;-61
2023/04/22 01:22:44;;;;;;;3.30;0.77;;;;;;;11.51;75.11;94899.12;4413459;32;20191;-60
2023/04/22 01:25:10;;;;;;;0.30;0.30;;;;;;;11.36;75.59;94897.69;4401472;32;20229;-60
2023/04/22 01:27:36;;;;;;;0.10;0.10;;;;;;;11.52;75.02;94898.03;4400054;32;20252;-60
2023/04/22 01:30:03;;;;;;;0.13;0.13;;;;;;;11.41;75.46;94889.59;4400224;32;20187;-60
2023/04/22 01:32:29;;;;;;;0.67;0.50;;;;;;;11.46;75.78;94896.59;4398293;32;20183;-61
2023/04/22 01:34:55;;;;;;;0.37;0.37;;;;;;;11.40;75.87;94898.66;4392940;32;20198;-60
2023/04/22 01:37:21;;;;;;;2.47;0.77;;;;;;;11.27;76.46;94894.22;4391260;32;20268;-60
2023/04/22 01:39:47;;;;;;;0.30;0.30;;;;;;;11.13;77.31;94889.03;4395434;32;20220;-60
2023/04/22 01:42:12;;;;;;;1.00;0.90;;;;;;;11.20;77.90;94893.91;4396318;32;20191;-60
2023/04/22 01:44:38;;;;;;;0.50;0.50;;;;;;;11.23;77.31;94903.88;4398083;32;20184;-60
2023/04/22 01:47:04;;;;;;;0.50;0.50;;;;;;;11.16;77.73;94900.91;4409653;32;20176;-61
2023/04/22 01:49:29;;;;;;;0.20;0.20;;;;;;;11.00;78.16;94900.53;4394299;32;20196;-61
2023/04/22 01:51:56;;;;;;;0.43;0.43;;;;;;;11.12;77.67;94902.59;4402621;32;20206;-60
2023/04/22 01:54:21;;;;;;;1.03;1.03;;;;;;;11.15;77.63;94902.00;4399960;32;20206;-60
2023/04/22 01:56:52;;;;;;;0.40;0.40;;;;;;;11.05;78.25;94896.94;4397576;32;20193;-60
2023/04/22 01:59:18;;;;;;;1.33;0.43;;;;;;;10.91;78.31;94899.69;4396229;32;20183;-61
2023/04/22 02:01:43;;;;;;;0.30;0.30;;;;;;;10.74;79.45;94897.75;4392396;32;20244;-60
2023/04/22 02:04:09;;;;;;;0.40;0.40;;;;;;;11.09;78.01;94900.56;4396812;32;20185;-60
2023/04/22 02:06:34;;;;;;;0.30;0.30;;;;;;;11.08;78.01;94905.06;4397068;32;20259;-60
2023/04/22 02:08:59;;;;;;;0.60;0.60;;;;;;;11.01;77.86;94908.16;4388581;32;20176;-60
2023/04/22 02:11:25;;;;;;;0.27;0.27;;;;;;;10.92;78.72;94915.31;4392379;32;20214;-60
2023/04/22 02:13:50;;;;;;;0.73;0.73;;;;;;;10.85;78.87;94912.31;4399014;32;20235;-61
2023/04/22 02:16:15;;;;;;;0.20;0.20;;;;;;;10.94;78.96;94907.06;4391568;32;20180;-60
2023/04/22 02:18:41;;;;;;;0.77;0.77;;;;;;;10.84;79.32;94902.78;4393511;32;20176;-60
2023/04/22 02:21:06;;;;;;;0.30;0.30;;;;;;;10.57;80.01;94897.66;4390413;32;20207;-61
2023/04/22 02:23:32;;;;;;;0.20;0.20;;;;;;;10.21;81.85;94901.13;4394077;32;20200;-60
2023/04/22 02:25:57;;;;;;;0.57;0.57;;;;;;;10.17;82.05;94905.47;4391599;32;20177;-60
2023/04/22 02:28:22;;;;;;;0.60;0.60;;;;;;;10.41;81.32;94901.75;4389820;32;20282;-60
2023/04/22 02:30:48;;;;;;;1.00;0.77;;;;;;;10.51;80.67;94901.50;4400809;32;20207;-60
2023/04/22 02:33:13;;;;;;;0.40;0.40;;;;;;;10.43;80.88;94908.31;4401850;32;20177;-59
2023/04/22 02:35:38;;;;;;;0.33;0.33;;;;;;;10.26;81.34;94898.38;4399203;32;20235;-60
2023/04/22 02:38:04;;;;;;;0.50;0.50;;;;;;;10.27;81.51;94897.28;4398729;32;20188;-60
2023/04/22 02:40:29;;;;;;;0.60;0.60;;;;;;;10.28;81.49;94904.16;4391583;32;20184;-60
2023/04/22 02:42:55;;;;;;;0.70;0.50;;;;;;;10.44;80.98;94899.28;4393427;32;20180;-61
2023/04/22 02:45:21;;;;;;;1.03;0.43;;;;;;;10.44;80.79;94909.87;4394944;32;20226;-60
2023/04/22 02:47:49;;;;;;;0.30;0.30;;;;;;;10.41;81.11;94905.19;4385071;32;20196;-60
2023/04/22 02:50:14;;;;;;;0.40;0.40;;;;;;;10.54;80.68;94901.69;4390150;32;20189;-60
2023/04/22 02:52:39;;;;;;;0.40;0.40;;;;;;;10.65;79.94;94896.91;4396615;32;20184;-60
2023/04/22 02:55:05;;;;;;;0.40;0.40;;;;;;;10.66;79.62;94893.16;4394528;32;20295;-61
2023/04/22 02:57:31;;;;;;;0.73;0.50;;;;;;;10.56;80.31;94893.44;4394279;32;20238;-60
2023/04/22 02:59:56;;;;;;;0.63;0.60;;;;;;;10.49;80.47;94896.50;4393710;32;20207;-60
2023/04/22 03:02:22;;;;;;;0.63;0.63;;;;;;;10.50;80.50;94887.47;4391859;32;20310;-60
2023/04/22 03:04:47;;;;;;;0.37;0.37;;;;;;;10.41;80.69;94894.56;4392616;32;20188;-60
2023/04/22 03:07:13;;;;;;;0.47;0.47;;;;;;;10.40;81.10;94893.00;4393369;32;20275;-60
2023/04/22 03:09:38;;;;;;;0.40;0.40;;;;;;;10.20;81.63;94888.97;4388721;32;20215;-60
2023/04/22 03:12:03;;;;;;;0.60;0.50;;;;;;;10.11;81.79;94887.31;4389282;32;20233;-60
2023/04/22 03:14:29;;;;;;;0.50;0.50;;;;;;;9.76;83.10;94883.62;4399934;32;20282;-61
2023/04/22 03:16:55;;;;;;;0.70;0.50;;;;;;;9.57;84.08;94892.47;4400749;32;20198;-60
2023/04/22 03:19:20;;;;;;;0.40;0.40;;;;;;;9.64;84.17;94892.84;4399008;32;20184;-60
2023/04/22 03:21:45;;;;;;;1.03;1.03;;;;;;;9.72;83.80;94887.94;4399821;32;20250;-60
2023/04/22 03:24:10;;;;;;;0.53;0.53;;;;;;;9.78;83.24;94882.22;4399575;32;20194;-60
2023/04/22 03:26:36;;;;;;;0.60;0.60;;;;;;;9.78;83.24;94887.50;4394057;32;20184;-60
2023/04/22 03:29:01;;;;;;;1.27;0.77;;;;;;;9.94;82.69;94882.69;4404205;32;20176;-60
2023/04/22 03:31:26;;;;;;;0.20;0.20;;;;;;;10.00;82.23;94889.41;4394609;32;20238;-60
2023/04/22 03:33:52;;;;;;;0.20;0.20;;;;;;;9.92;82.47;94882.19;4393984;32;20272;-60
2023/04/22 03:36:17;;;;;;;0.10;0.10;;;;;;;9.92;82.29;94882.19;4396018;32;20180;-61
2023/04/22 03:38:42;;;;;;;0.30;0.30;;;;;;;9.91;82.06;94878.75;4393037;32;20184;-60
2023/04/22 03:41:08;;;;;;;0.40;0.40;;;;;;;9.96;82.28;94883.16;4398721;32;20221;-60
2023/04/22 03:43:33;;;;;;;0.83;0.70;;;;;;;9.87;82.17;94884.94;4399153;32;20250;-60
2023/04/22 03:45:58;;;;;;;0.37;0.37;;;;;;;9.96;81.79;94883.16;4398961;32;20193;-60
2023/04/22 03:48:24;;;;;;;1.53;1.00;;;;;;;10.02;81.55;94886.47;4408137;32;20196;-60
2023/04/22 03:50:49;;;;;;;0.63;0.63;;;;;;;10.11;81.16;94889.97;4388747;32;20219;-60
2023/04/22 03:53:14;;;;;;;0.40;0.40;;;;;;;10.20;80.85;94894.28;4391023;32;20184;-60
2023/04/22 03:55:40;;;;;;;0.20;0.20;;;;;;;10.21;80.35;94897.69;4410663;32;20188;-60
2023/04/22 03:58:05;;;;;;;0.63;0.63;;;;;;;10.18;80.33;94898.31;4396781;32;20228;-60
2023/04/22 04:00:30;;;;;;;0.40;0.40;;;;;;;10.03;80.59;94896.75;4391625;32;20290;-60
2023/04/22 04:02:56;;;;;;;0.60;0.60;;;;;;;9.91;81.06;94899.94;4389611;32;20176;-60
2023/04/22 04:05:21;;;;;;;0.60;0.60;;;;;;;9.82;81.68;94901.72;4393221;32;20176;-60
2023/04/22 04:07:46;;;;;;;0.40;0.40;;;;;;;9.78;82.13;94897.31;4390137;32;20206;-60
2023/04/22 04:10:12;;;;;;;0.40;0.40;;;;;;;9.92;81.72;94898.09;4393158;32;20260;-61
2023/04/22 04:12:37;;;;;;;0.30;0.30;;;;;;;9.84;81.96;94896.91;4391265;32;20214;-60
2023/04/22 04:15:03;;;;;;;0.93;0.30;;;;;;;9.65;82.21;94897.06;4386871;32;20188;-63
2023/04/22 04:17:29;;;;;;;0.40;0.40;;;;;;;9.74;82.06;94899.03;4398781;32;20255;-60
2023/04/22 04:19:54;;;;;;;0.30;0.30;;;;;;;9.75;81.15;94897.94;4388091;32;20196;-60
2023/04/22 04:22:20;;;;;;;0.70;0.70;;;;;;;9.61;81.71;94898.72;4391883;32;20199;-60
2023/04/22 04:24:46;;;;;;;0.50;0.50;;;;;;;9.48;82.79;94914.66;4390872;32;20219;-60
2023/04/22 04:27:12;;;;;;;0.17;0.10;;;;;;;9.45;82.67;94910.72;4389673;32;20244;-60
2023/04/22 04:29:38;;;;;;;0.63;0.60;;;;;;;9.59;82.21;94908.84;4411319;32;20188;-60
2023/04/22 04:32:04;;;;;;;0.10;0.10;;;;;;;9.72;81.52;94903.81;4390071;32;20195;-61
2023/04/22 04:34:31;;;;;;;0.43;0.43;;;;;;;9.78;81.45;94897.31;4388679;32;20211;-60
2023/04/22 04:36:56;;;;;;;0.17;0.17;;;;;;;9.67;81.49;94898.62;4394014;32;20225;-60
2023/04/22 04:39:22;;;;;;;0.10;0.10;;;;;;;9.65;81.72;94893.63;4389843;32;20263;-60
2023/04/22 04:41:48;;;;;;;0.47;0.47;;;;;;;9.69;81.13;94885.88;4403442;32;20206;-60
2023/04/22 04:44:14;;;;;;;0.27;0.27;;;;;;;9.65;81.00;94883.03;4391230;32;20192;-60
2023/04/22 04:46:40;;;;;;;0.27;0.27;;;;;;;9.59;81.24;94877.06;4399032;32;20189;-60
2023/04/22 04:49:38;;;;;;;0.40;0.40;;;;;;;9.72;80.83;94890.59;4392423;32;20264;-60
2023/04/22 04:52:06;;;;;;;0.40;0.40;;;;;;;9.76;80.89;94896.84;4390844;32;20222;-60
2023/04/22 04:54:31;;;;;;;0.30;0.30;;;;;;;9.76;80.70;94894.22;4394545;32;20180;-60
2023/04/22 04:56:57;;;;;;;1.13;0.50;;;;;;;9.78;80.50;94902.63;4396665;32;20282;-60
2023/04/22 04:59:22;;;;;;;0.13;0.13;;;;;;;9.83;80.06;94900.66;4400700;32;20291;-60
2023/04/22 05:01:48;;;;;;;0.27;0.27;;;;;;;9.92;79.82;94906.03;4394622;32;20196;-60
2023/04/22 05:04:13;;;;;;;0.30;0.30;;;;;;;9.88;79.93;94905.06;4396991;32;20184;-60
2023/04/22 05:06:38;;;;;;;0.33;0.33;;;;;;;10.02;78.61;94897.06;4397048;32;20195;-60
2023/04/22 05:09:06;;;;;;;0.83;0.47;;;;;;;10.10;78.06;94899.78;4394169;32;20172;-60
2023/04/22 05:11:32;;;;;;;0.20;0.20;;;;;;;10.04;78.39;94885.09;4399304;32;20226;-60
2023/04/22 05:13:57;;;;;;;0.23;0.23;;;;;;;9.98;78.59;94892.34;4402050;32;20175;-60
2023/04/22 05:16:22;;;;;;;0.20;0.20;;;;;;;10.14;77.72;94890.16;4399213;32;20235;-60
2023/04/22 05:18:48;;;;;;;0.40;0.40;;;;;;;10.22;77.48;94892.09;4393514;32;20184;-60
2023/04/22 05:21:14;;;;;;;0.30;0.30;;;;;;;10.39;76.38;94894.13;4394538;32;20273;-60
2023/04/22 05:23:40;;;;;;;0.50;0.50;;;;;;;10.40;75.58;94895.66;4390683;32;20250;-60
2023/04/22 05:26:05;;;;;;;0.30;0.30;;;;;;;10.51;75.71;94896.19;4394177;32;20817;-60
2023/04/22 05:28:30;;;;;;;0.27;0.27;;;;;;;10.56;74.97;94896.09;4399662;32;20184;-60
2023/04/22 05:30:56;;;;;;;0.53;0.53;;;;;;;10.54;75.52;94887.66;4392831;32;20251;-60
2023/04/22 05:33:21;;;;;;;0.30;0.30;;;;;;;10.61;74.27;94890.62;4411477;32;20184;-60
2023/04/22 05:35:47;;;;;;;0.20;0.20;;;;;;;10.69;74.72;94887.25;4391991;32;20203;-60
2023/04/22 05:38:12;;;;;;;0.20;0.20;;;;;;;10.68;73.72;94893.66;4391723;32;20255;-60
2023/04/22 05:40:39;;;;;;;0.30;0.30;;;;;;;10.71;73.89;94897.56;4392615;32;20203;-61
2023/04/22 05:43:05;;;;;;;0.13;0.13;;;;;;;10.79;73.91;94902.94;4389971;32;20195;-61
2023/04/22 05:45:30;;;;;;;0.37;0.37;;;;;;;10.78;74.02;94893.41;4391900;32;20180;-60
2023/04/22 05:47:56;;;;;;;0.47;0.47;;;;;;;10.83;74.55;94911.03;4393827;32;20203;-60
2023/04/22 05:50:21;;;;;;;0.67;0.33;;;;;;;10.76;75.46;94908.84;4392479;32;20212;-61
2023/04/22 05:52:46;;;;;;;0.33;0.33;;;;;;;10.97;75.01;94909.87;4395677;32;20210;-60
2023/04/22 05:55:12;;;;;;;4.90;0.60;;;;;;;10.83;75.68;94917.13;4387722;32;20238;-60
2023/04/22 05:57:37;;;;;;;0.60;0.60;;;;;;;10.88;75.95;94917.00;4398620;32;20192;-60
2023/04/22 06:00:04;;;;;;;0.47;0.30;;;;;;;10.99;75.77;94915.66;4395284;32;20230;-65
2023/04/22 06:02:29;;;;;;;0.40;0.40;;;;;;;11.08;75.98;94925.53;4397080;32;20184;-60
2023/04/22 06:04:54;;;;;;;0.20;0.20;;;;;;;10.95;75.66;94922.66;4391061;32;20191;-60
2023/04/22 06:07:20;;;;;;;0.53;0.53;;;;;;;10.99;76.10;94926.28;4391939;32;20196;-60
2023/04/22 06:09:45;;;;;;;0.60;0.50;;;;;;;11.12;76.89;94929.16;4396922;32;20194;-60
2023/04/22 06:12:11;;;;;;;0.53;0.53;;;;;;;11.15;74.78;94928.53;4399162;32;20184;-61
2023/04/22 06:14:36;;;;;;;0.67;0.67;;;;;;;11.24;75.57;94935.44;4394782;32;20219;-60
2023/04/22 06:17:02;;;;;;;0.67;0.67;;;;;;;11.31;74.62;94932.34;4399779;32;20180;-60
2023/04/22 06:19:27;;;;;;;0.23;0.23;;;;;;;11.40;75.20;94933.16;4395213;32;20296;-60
2023/04/22 06:21:53;;;;;;;0.40;0.40;;;;;;;11.46;74.65;94934.56;4393008;32;20255;-61
2023/04/22 06:24:18;;;;;;;0.27;0.27;;;;;;;11.60;72.90;94942.44;4396234;32;20189;-60
2023/04/22 06:26:43;;;;;;;0.13;0.13;;;;;;;11.66;73.62;94939.31;4393335;32;20196;-60
2023/04/22 06:29:09;;;;;;;0.53;0.50;;;;;;;11.73;71.57;94944.19;4400121;32;20192;-60
2023/04/22 06:31:34;;;;;;;0.43;0.43;;;;;;;11.87;69.22;94944.88;4389064;32;20175;-61
2023/04/22 06:34:00;;;;;;;0.50;0.50;;;;;;;12.02;68.91;94944.44;4395296;32;20176;-60
2023/04/22 06:36:26;;;;;;;0.20;0.20;;;;;;;12.11;71.38;94947.09;4388779;32;20195;-60
2023/04/22 06:38:52;;;;;;;0.33;0.33;;;;;;;12.24;67.24;94940.06;4394302;32;20203;-60
2023/04/22 06:41:17;;;;;;;0.37;0.37;;;;;;;12.34;68.06;94939.75;4391016;32;20176;-60
2023/04/22 06:43:43;;;;;;;1.83;0.63;;;;;;;12.37;71.10;94939.13;4394127;32;20299;-61
2023/04/22 06:46:08;;;;;;;0.80;0.67;;;;;;;12.42;67.47;94944.28;4396908;32;20181;-60
2023/04/22 06:48:34;;;;;;;1.23;1.13;;;;;;;12.51;66.88;94938.94;4394636;32;20203;-61
2023/04/22 06:51:00;;;;;;;0.30;0.30;;;;;;;12.65;66.48;94942.25;4396105;32;20194;-61
2023/04/22 06:53:25;;;;;;;0.80;0.80;;;;;;;12.71;68.28;94946.28;4415489;32;20191;-60
2023/04/22 06:55:52;;;;;;;0.33;0.33;;;;;;;12.74;67.01;94943.00;4385503;32;20192;-60
2023/04/22 06:58:17;;;;;;;0.20;0.20;;;;;;;12.76;67.75;94946.13;4386893;32;20215;-60
2023/04/22 07:00:43;;;;;;;0.23;0.23;;;;;;;12.89;66.69;94947.03;4395042;32;20259;-60
2023/04/22 07:03:08;;;;;;;1.07;0.97;;;;;;;13.02;67.23;94940.75;4394550;32;20188;-60
2023/04/22 07:05:33;;;;;;;1.60;1.50;;;;;;;13.08;67.53;94934.94;4391374;32;20189;-62
2023/04/22 07:07:59;;;;;;;0.30;0.30;;;;;;;13.13;64.78;94938.50;4402739;32;20207;-60
2023/04/22 07:10:24;;;;;;;0.40;0.40;;;;;;;13.23;67.28;94938.22;4394768;32;20195;-60
2023/04/22 07:12:49;;;;;;;0.40;0.40;;;;;;;13.22;65.02;94937.44;4396466;32;20193;-61
2023/04/22 07:15:15;;;;;;;0.27;0.23;;;;;;;13.36;63.52;94934.53;4375953;32;20296;-60
2023/04/22 07:17:41;;;;;;;0.20;0.20;;;;;;;13.44;63.28;94936.41;4392560;32;20192;-60
2023/04/22 07:20:07;;;;;;;0.37;0.37;;;;;;;13.52;62.54;94938.22;4383205;32;20238;-61
2023/04/22 07:22:32;;;;;;;0.43;0.43;;;;;;;13.64;61.71;94934.91;4395449;32;20196;-60
2023/04/22 07:24:57;;;;;;;0.27;0.27;;;;;;;13.69;63.13;94935.50;4390129;32;20200;-60
2023/04/22 07:27:23;;;;;;;0.07;0.07;;;;;;;13.73;62.87;94935.62;4389071;32;20193;-61
2023/04/22 07:29:48;;;;;;;0.50;0.50;;;;;;;13.80;63.21;94927.91;4411474;32;20258;-60
2023/04/22 07:32:14;;;;;;;0.60;0.60;;;;;;;13.93;60.92;94931.41;4389197;32;20195;-60
2023/04/22 07:34:39;;;;;;;1.20;1.20;;;;;;;13.99;61.44;94925.59;4397510;32;20252;-61
2023/04/22 07:37:06;;;;;;;0.93;0.93;;;;;;;14.04;62.12;94921.94;4401121;32;20184;-61
2023/04/22 07:39:31;;;;;;;0.40;0.40;;;;;;;14.07;62.04;94918.63;4397151;32;20210;-60
2023/04/22 07:41:57;;;;;;;0.30;0.30;;;;;;;14.13;59.57;94920.00;4392567;32;20201;-60
2023/04/22 07:44:22;;;;;;;0.10;0.10;;;;;;;14.42;55.16;94916.50;4395427;32;20283;-60
2023/04/22 07:46:49;;;;;;;0.20;0.20;;;;;;;14.49;55.46;94918.66;4390580;32;20264;-60
2023/04/22 07:49:15;;;;;;;0.40;0.40;;;;;;;14.51;56.54;94930.56;4392396;32;20210;-60
2023/04/22 07:51:41;;;;;;;0.00;0.00;;;;;;;14.48;56.56;94920.53;4393497;32;20184;-60
2023/04/22 07:54:06;;;;;;;1.17;0.37;;;;;;;14.47;56.85;94923.53;4394548;32;20262;-60
2023/04/22 07:56:33;;;;;;;0.50;0.50;;;;;;;14.44;56.51;94931.09;4397674;32;20180;-60
2023/04/22 07:58:58;;;;;;;0.10;0.10;;;;;;;14.68;54.06;94925.06;4393654;32;20188;-60
2023/04/22 08:01:23;;;;;;;0.13;0.13;;;;;;;14.83;52.83;94929.00;4391681;32;20211;-60
2023/04/22 08:03:48;;;;;;;0.10;0.10;;;;;;;14.81;53.43;94920.53;4396897;32;20224;-61
2023/04/22 08:06:14;;;;;;;0.27;0.27;;;;;;;14.85;53.48;94916.09;4389853;32;20207;-59
2023/04/22 08:08:39;;;;;;;0.10;0.10;;;;;;;14.93;53.77;94914.47;4403034;32;20291;-60
2023/04/22 08:11:05;;;;;;;0.00;0.00;;;;;;;14.97;53.75;94916.13;4389444;32;20207;-59
2023/04/22 08:13:31;;;;;;;0.20;0.20;;;;;;;14.98;54.27;94920.34;4395618;32;20180;-59
2023/04/22 08:15:56;;;;;;;0.10;0.10;;;;;;;15.06;55.64;94924.06;4399418;32;20198;-59
2023/04/22 08:18:21;;;;;;;0.10;0.10;;;;;;;15.06;54.27;94916.03;4387788;32;20208;-59
2023/04/22 08:20:47;;;;;;;0.30;0.30;;;;;;;15.11;53.68;94923.84;4386184;32;20228;-59
2023/04/22 08:23:12;;;;;;;0.33;0.33;;;;;;;15.11;53.10;94918.50;4398207;32;20246;-59
2023/04/22 08:25:37;;;;;;;0.03;0.03;;;;;;;15.19;53.62;94924.84;4403284;32;20196;-59
2023/04/22 08:28:03;;;;;;;0.30;0.30;;;;;;;15.23;53.55;94923.06;4392863;32;20179;-62
2023/04/22 08:30:28;;;;;;;0.53;0.30;;;;;;;15.25;52.41;94921.62;4394522;32;20184;-59
2023/04/22 08:32:53;;;;;;;0.00;0.00;;;;;;;15.39;51.36;94921.31;4384639;32;20172;-59
2023/04/22 08:35:19;;;;;;;0.63;0.37;;;;;;;15.53;51.08;94913.75;4391574;32;20193;-58
2023/04/22 08:37:45;;;;;;;0.60;0.60;;;;;;;15.56;50.52;94918.47;4384925;32;20180;-59
2023/04/22 08:40:10;;;;;;;0.30;0.30;;;;;;;15.60;50.89;94929.25;4388126;32;20245;-59
2023/04/22 08:42:36;;;;;;;0.00;0.00;;;;;;;15.71;50.12;94930.38;4388960;32;20189;-59
2023/04/22 08:45:04;;;;;;;0.23;0.23;;;;;;;15.85;51.40;94930.81;4392577;32;20225;-62
2023/04/22 08:47:31;;;;;;;5.43;1.57;;;;;;;16.08;59.37;94931.13;4391604;32;20262;-61
2023/04/22 08:50:00;;;;;;;1.03;0.70;;;;;;;16.33;70.07;94919.25;4393264;32;20181;-62
2023/04/22 08:52:25;;;;;;;0.50;0.50;;;;;;;16.44;67.09;94927.56;4397346;32;20251;-62
2023/04/22 08:54:51;;;;;;;0.60;0.60;;;;;;;16.68;70.52;94919.47;4396458;32;20237;-62
2023/04/22 08:57:17;;;;;;;0.70;0.70;;;;;;;16.73;68.21;94929.16;4389296;32;20188;-62
2023/04/22 08:59:43;;;;;;;0.20;0.20;;;;;;;16.84;69.20;94914.16;4392238;32;20199;-62
2023/04/22 09:02:17;;;;;;;0.40;0.40;;;;;;;16.97;70.07;94912.19;4410204;32;20200;-63
2023/04/22 09:04:48;;;;;;;0.27;0.27;;;;;;;17.06;69.51;94910.91;4397937;32;20183;-62
2023/04/22 09:07:23;;;;;;;0.20;0.20;;;;;;;17.06;56.45;94915.47;4395612;32;20199;-62
2023/04/22 09:09:49;;;;;;;0.50;0.20;;;;;;;17.35;57.52;94912.41;4389935;32;20202;-62
2023/04/22 09:12:16;;;;;;;0.40;0.30;;;;;;;17.55;54.85;94921.31;4389555;32;20200;-62
2023/04/22 09:14:42;;;;;;;0.40;0.40;;;;;;;17.76;56.76;94908.41;4393050;32;20236;-62
2023/04/22 09:17:07;;;;;;;0.30;0.30;;;;;;;18.00;55.65;94906.66;4384570;32;20223;-61
2023/04/22 09:19:33;;;;;;;2.63;0.47;;;;;;;18.23;49.82;94906.75;4399382;32;20188;-60
2023/04/22 09:21:58;;;;;;;0.20;0.20;;;;;;;18.40;50.48;94912.50;4400572;32;20207;-63
2023/04/22 09:24:24;;;;;;;0.20;0.20;;;;;;;18.55;51.19;94913.53;4392166;32;20188;-62
2023/04/22 09:26:49;;;;;;;0.17;0.17;;;;;;;18.53;45.98;94910.44;4387542;32;20249;-62
2023/04/22 09:29:15;;;;;;;0.40;0.40;;;;;;;18.68;49.49;94903.47;4403226;32;20185;-62
2023/04/22 09:31:41;;;;;;;0.30;0.30;;;;;;;18.83;49.97;94905.31;4389396;32;20196;-62
2023/04/22 09:34:06;;;;;;;0.40;0.40;;;;;;;18.96;51.26;94895.16;4392951;32;20193;-61
2023/04/22 09:36:39;;;;;;;0.10;0.10;;;;;;;18.98;48.93;94898.25;4412085;32;20184;-62
2023/04/22 09:39:08;;;;;;;0.33;0.33;;;;;;;19.15;50.68;94903.19;4388056;32;20196;-61
2023/04/22 09:41:37;;;;;;;0.10;0.10;;;;;;;19.32;50.09;94896.56;4395883;32;20192;-61
2023/04/22 09:44:04;;;;;;;0.10;0.10;;;;;;;19.43;50.87;94902.87;4390768;32;20185;-63
2023/04/22 09:46:30;;;;;;;0.10;0.10;;;;;;;19.52;47.70;94900.78;4410197;32;20183;-62
2023/04/22 09:48:58;;;;;;;0.00;0.00;;;;;;;19.63;49.96;94890.94;4393980;32;20252;-62
2023/04/22 09:51:23;;;;;;;0.20;0.20;;;;;;;19.42;47.74;94891.34;4391377;32;20335;-62
2023/04/22 09:54:02;;;;;;;0.10;0.10;;;;;;;19.51;49.97;94889.22;4394105;32;20219;-62
2023/04/22 09:56:48;;;;;;;0.10;0.10;;;;;;;19.47;45.73;94877.59;4401910;32;20188;-62
2023/04/22 09:59:16;;;;;;;0.07;0.07;;;;;;;19.63;49.20;94884.78;4389582;32;20192;-61
2023/04/22 10:01:41;;;;;;;0.10;0.10;;;;;;;19.66;45.85;94882.16;4389921;32;20269;-61
2023/04/22 10:04:13;;;;;;;0.50;0.47;;;;;;;19.71;48.04;94884.53;4406780;32;20215;-61
2023/04/22 10:06:38;;;;;;;1.43;0.50;;;;;;;19.77;46.30;94882.28;4387151;32;20233;-61
2023/04/22 10:09:04;;;;;;;0.60;0.40;;;;;;;19.90;46.79;94873.66;4391069;32;20181;-61
2023/04/22 10:11:31;;;;;;;0.57;0.30;;;;;;;19.96;49.83;94878.72;4402985;32;20195;-62
2023/04/22 10:13:57;;;;;;;0.43;0.43;;;;;;;19.82;47.68;94866.59;4395600;32;20214;-63
2023/04/22 10:16:24;;;;;;;0.50;0.50;;;;;;;19.81;46.62;94870.44;4404741;32;20188;-62
2023/04/22 10:18:53;;;;;;;0.20;0.10;;;;;;;19.84;51.06;94868.94;4414517;32;20172;-62
2023/04/22 10:21:20;;;;;;;3.27;1.10;;;;;;;19.75;45.12;94868.41;4389467;32;20230;-62
2023/04/22 10:23:46;;;;;;;1.13;1.13;;;;;;;19.84;49.49;94869.72;4400688;32;20197;-62
2023/04/22 10:26:12;;;;;;;3.97;0.77;;;;;;;19.73;49.06;94874.19;4396346;32;20190;-62
2023/04/22 10:28:42;;;;;;;0.23;0.23;;;;;;;19.81;51.07;94865.06;4395442;32;20220;-62
2023/04/22 10:31:23;;;;;;;0.57;0.57;;;;;;;19.78;48.77;94865.78;4402932;32;20220;-62
2023/04/22 10:33:48;;;;;;;0.10;0.10;;;;;;;19.89;51.67;94861.34;4393891;32;20177;-62
2023/04/22 10:36:14;;;;;;;1.63;0.70;;;;;;;19.80;47.46;94857.34;4397315;32;20187;-62
2023/04/22 10:38:51;;;;;;;2.57;1.50;;;;;;;19.95;49.85;94852.94;4392492;32;20236;-62
2023/04/22 10:41:22;;;;;;;1.10;1.10;;;;;;;19.96;48.06;94860.62;4398149;32;20310;-62
2023/04/22 10:43:57;;;;;;;1.33;1.23;;;;;;;20.04;48.74;94856.13;4396601;32;20231;-62
2023/04/22 10:46:36;;;;;;;0.63;0.50;;;;;;;20.12;49.52;94849.72;4397468;32;20184;-63
2023/04/22 10:49:22;;;;;;;0.37;0.37;;;;;;;20.17;49.77;94849.37;4407396;32;20176;-63
2023/04/22 10:51:52;;;;;;;12.37;1.13;;;;;;;20.16;43.13;94843.19;4394704;32;20340;-62
2023/04/22 10:54:36;;;;;;;2.10;1.10;;;;;;;20.20;48.25;94846.72;4389799;32;20288;-62
2023/04/22 10:57:14;;;;;;;1.53;1.43;;;;;;;20.24;51.11;94844.06;4402956;32;20261;-63
2023/04/22 10:59:47;;;;;;;0.70;0.70;;;;;;;20.32;51.39;94836.88;4392463;32;20188;-62
2023/04/22 11:02:15;;;;;;;2.40;2.13;;;;;;;20.13;44.45;94835.09;4390574;32;20263;-63
2023/04/22 11:04:41;;;;;;;4.87;4.17;;;;;;;20.22;48.00;94835.59;4395522;32;20196;-63
2023/04/22 11:07:28;;;;;;;12.50;5.47;;;;;;;20.23;50.14;94832.53;4392131;32;20184;-63
2023/04/22 11:10:00;;;;;;;5.03;4.53;;;;;;;20.22;49.41;94836.38;4394172;32;20267;-63
2023/04/22 11:12:37;;;;;;;3.80;3.50;;;;;;;20.15;48.26;94844.38;4398162;32;20172;-63
2023/04/22 11:15:06;;;;;;;8.37;4.20;;;;;;;20.16;45.86;94835.13;4393418;32;20183;-63
2023/04/22 11:17:32;;;;;;;3.90;3.10;;;;;;;20.18;43.17;94840.16;4388269;32;20191;-63
2023/04/22 11:19:58;;;;;;;21.63;5.83;;;;;;;20.25;44.71;94832.16;4412260;32;20184;-63
2023/04/22 11:22:24;;;;;;;22.27;4.43;;;;;;;20.28;48.27;94830.66;4388843;32;20320;-63
2023/04/22 11:24:57;;;;;;;4.13;3.83;;;;;;;20.25;42.32;94824.09;4395478;32;20192;-63
2023/04/22 11:27:26;;;;;;;3.30;2.60;;;;;;;20.33;47.79;94824.94;4398140;32;20184;-63
2023/04/22 11:30:09;;;;;;;28.40;5.33;;;;;;;20.34;40.38;94821.88;4397788;32;20196;-63